Time;durP1;ratioP1;P1;durP2;ratioP2;P2;SDS_P1;SDS_P2;PMS_P1;PMS_P2;Temp;Humidity;BMP_temperature;BMP_pressure;BME280_temperature;BME280_humidity;BME280_pressure;Samples;Min_cycle;Max_cycle;Signal;HPM_P1;HPM_P2
2021/12/30 00:01:34;;;;;;;78.70;17.42;;;;;;;2.04;100.00;97808.19;5109974;28;20023;-73
2021/12/30 00:04:00;;;;;;;63.63;16.05;;;;;;;2.04;100.00;97818.97;5110448;28;20023;-73
2021/12/30 00:06:25;;;;;;;53.00;16.17;;;;;;;1.99;100.00;97814.34;5110179;28;20391;-74
2021/12/30 00:08:53;;;;;;;75.45;16.20;;;;;;;1.93;100.00;97823.41;5111027;28;20072;-74
2021/12/30 00:11:18;;;;;;;79.88;16.77;;;;;;;1.89;100.00;97822.25;5110570;28;20032;-72
2021/12/30 00:13:47;;;;;;;138.60;18.48;;;;;;;1.89;100.00;97821.41;5110831;28;20016;-72
2021/12/30 00:16:14;;;;;;;95.18;17.88;;;;;;;1.95;100.00;97832.06;5109200;28;20070;-71
2021/12/30 00:18:40;;;;;;;68.68;16.65;;;;;;;1.98;100.00;97836.13;5111172;28;20023;-73
2021/12/30 00:21:05;;;;;;;109.80;18.52;;;;;;;1.94;100.00;97843.91;5108943;28;20072;-72
2021/12/30 00:23:31;;;;;;;60.63;16.55;;;;;;;1.91;100.00;97846.28;5100221;28;20031;-72
2021/12/30 00:25:56;;;;;;;69.82;17.25;;;;;;;1.85;100.00;97863.44;5096930;28;20498;-71
2021/12/30 00:28:22;;;;;;;165.60;20.10;;;;;;;1.84;100.00;97848.31;5102255;28;20023;-71
2021/12/30 00:30:50;;;;;;;65.63;17.35;;;;;;;1.84;100.00;97851.81;5103277;28;20183;-74
2021/12/30 00:33:16;;;;;;;74.88;17.27;;;;;;;1.89;100.00;97857.31;5107104;28;20446;-72
2021/12/30 00:35:41;;;;;;;67.55;17.17;;;;;;;1.86;100.00;97865.88;5109484;28;20119;-73
2021/12/30 00:38:08;;;;;;;86.85;18.08;;;;;;;1.79;100.00;97875.97;5109888;28;20031;-74
2021/12/30 00:40:34;;;;;;;78.70;17.73;;;;;;;1.72;100.00;97869.94;5106106;28;20020;-73
2021/12/30 00:43:00;;;;;;;124.68;19.33;;;;;;;1.69;100.00;97883.91;5106689;28;20046;-74
2021/12/30 00:45:29;;;;;;;130.40;20.60;;;;;;;1.76;100.00;97886.44;5110023;28;20486;-73
2021/12/30 00:47:55;;;;;;;62.75;18.38;;;;;;;1.81;100.00;97883.84;5111896;28;20059;-74
2021/12/30 00:50:21;;;;;;;82.05;18.42;;;;;;;1.78;100.00;97885.16;5110912;28;20054;-74
2021/12/30 00:52:47;;;;;;;69.07;18.42;;;;;;;1.74;100.00;97878.59;5111218;28;20492;-73
2021/12/30 00:55:13;;;;;;;55.15;18.48;;;;;;;1.79;100.00;97867.88;5110211;28;20081;-76
2021/12/30 00:57:38;;;;;;;65.93;18.73;;;;;;;1.79;100.00;97870.59;5110603;28;20035;-74
2021/12/30 01:00:07;;;;;;;53.72;18.55;;;;;;;1.77;100.00;97875.41;5109382;28;20051;-73
2021/12/30 01:02:33;;;;;;;72.88;18.17;;;;;;;1.82;100.00;97871.97;5110654;28;20019;-75
2021/12/30 01:04:58;;;;;;;72.40;19.42;;;;;;;1.83;100.00;97879.00;5110423;28;20088;-73
2021/12/30 01:07:24;;;;;;;94.18;19.05;;;;;;;1.96;100.00;97893.03;5110486;28;20058;-73
2021/12/30 01:09:49;;;;;;;73.40;17.13;;;;;;;2.08;100.00;97891.09;5109138;28;20372;-73
2021/12/30 01:12:15;;;;;;;67.18;18.17;;;;;;;2.10;100.00;97880.88;5112160;28;20028;-74
2021/12/30 01:14:46;;;;;;;67.35;19.95;;;;;;;2.03;100.00;97887.50;5114528;28;20028;-73
2021/12/30 01:18:10;;;;;;;67.68;19.42;;;;;;;1.97;100.00;97886.56;5114507;28;20570;-77
2021/12/30 01:19:57;;;;;;;72.45;17.08;;;;;;;2.03;100.00;97882.09;5110745;28;20572;-73
2021/12/30 01:22:27;;;;;;;57.65;18.15;;;;;;;1.99;100.00;97884.47;5115062;28;20032;-73
2021/12/30 01:24:53;;;;;;;62.13;19.13;;;;;;;2.17;100.00;97883.41;5114400;28;20039;-73
2021/12/30 01:27:20;;;;;;;59.70;17.58;;;;;;;2.17;100.00;97896.91;5114294;28;20387;-73
2021/12/30 01:29:46;;;;;;;56.10;17.95;;;;;;;2.22;100.00;97896.19;5114571;28;20023;-73
2021/12/30 01:32:11;;;;;;;48.30;17.33;;;;;;;2.23;100.00;97892.41;5114217;28;20494;-73
2021/12/30 01:34:37;;;;;;;53.10;16.95;;;;;;;2.21;100.00;97889.13;5114070;28;20020;-73
2021/12/30 01:37:04;;;;;;;54.28;18.15;;;;;;;2.24;100.00;97885.97;5114371;28;20055;-74
2021/12/30 01:39:31;;;;;;;87.72;17.88;;;;;;;2.14;100.00;97902.78;5114299;28;20035;-74
2021/12/30 01:41:58;;;;;;;84.15;19.42;;;;;;;2.19;100.00;97907.47;5114397;28;20019;-74
2021/12/30 01:44:24;;;;;;;62.03;18.42;;;;;;;2.16;100.00;97906.88;5098855;28;20106;-73
2021/12/30 01:46:51;;;;;;;51.47;17.55;;;;;;;2.25;100.00;97901.09;5113529;28;20032;-73
2021/12/30 01:49:17;;;;;;;103.35;19.77;;;;;;;2.31;100.00;97894.72;5112273;28;20027;-73
2021/12/30 01:51:43;;;;;;;107.50;20.08;;;;;;;2.31;100.00;97900.13;5114265;28;20114;-73
2021/12/30 01:54:10;;;;;;;71.22;19.55;;;;;;;2.28;100.00;97896.03;5120302;28;20043;-74
2021/12/30 01:56:36;;;;;;;115.68;19.23;;;;;;;2.27;100.00;97896.25;5116035;28;20128;-74
2021/12/30 01:59:02;;;;;;;87.22;18.33;;;;;;;2.26;100.00;97902.72;5114345;28;20092;-74
2021/12/30 02:01:29;;;;;;;102.35;20.65;;;;;;;2.28;100.00;97919.50;5114168;28;20039;-73
2021/12/30 02:03:55;;;;;;;71.30;18.20;;;;;;;2.36;100.00;97914.50;5114007;28;20484;-74
2021/12/30 02:06:20;;;;;;;102.53;21.65;;;;;;;2.44;100.00;97905.19;5113784;28;20031;-74
2021/12/30 02:08:46;;;;;;;68.07;19.67;;;;;;;2.41;100.00;97897.59;5116089;28;20024;-77
2021/12/30 02:11:11;;;;;;;68.22;19.52;;;;;;;2.42;100.00;97902.72;5115527;28;20461;-74
2021/12/30 02:13:37;;;;;;;155.32;24.55;;;;;;;2.40;100.00;97915.66;5113456;28;20027;-74
2021/12/30 02:16:03;;;;;;;59.15;19.17;;;;;;;2.46;100.00;97919.25;5113561;28;20080;-74
2021/12/30 02:18:31;;;;;;;106.15;21.05;;;;;;;2.39;100.00;97907.78;5113968;28;20076;-74
2021/12/30 02:21:01;;;;;;;60.05;20.52;;;;;;;2.36;100.00;97910.97;5113496;28;20026;-73
2021/12/30 02:23:30;;;;;;;99.85;21.23;;;;;;;2.42;100.00;97912.69;5113197;28;20024;-74
2021/12/30 02:25:59;;;;;;;77.75;20.52;;;;;;;2.51;100.00;97922.84;5113270;28;20024;-73
2021/12/30 02:28:29;;;;;;;105.45;21.10;;;;;;;2.45;100.00;97913.03;5096646;28;20026;-72
2021/12/30 02:30:57;;;;;;;236.05;26.20;;;;;;;2.36;100.00;97906.41;5113337;28;20034;-74
2021/12/30 02:33:23;;;;;;;151.07;24.23;;;;;;;2.25;100.00;97895.69;5113058;28;20034;-72
2021/12/30 02:35:50;;;;;;;92.90;22.70;;;;;;;2.23;100.00;97895.09;5113121;28;20031;-73
2021/12/30 02:38:17;;;;;;;107.43;24.45;;;;;;;2.16;100.00;97903.38;5102219;28;20099;-74
2021/12/30 02:40:48;;;;;;;75.90;22.38;;;;;;;2.17;100.00;97908.50;5099670;28;20055;-74
2021/12/30 02:43:17;;;;;;;97.65;25.45;;;;;;;2.11;100.00;97904.09;5111081;28;20023;-73
2021/12/30 02:45:43;;;;;;;123.38;24.95;;;;;;;2.14;100.00;97905.47;5111218;28;20020;-73
2021/12/30 02:48:20;;;;;;;103.82;23.83;;;;;;;2.03;100.00;97900.97;5112573;28;20392;-73
2021/12/30 02:50:47;;;;;;;73.78;21.23;;;;;;;2.06;100.00;97898.63;5112929;28;20084;-74
2021/12/30 02:53:14;;;;;;;101.18;23.27;;;;;;;2.06;100.00;97895.91;5112779;28;20085;-73
2021/12/30 02:55:41;;;;;;;83.50;22.42;;;;;;;2.14;100.00;97900.91;5112136;28;20040;-75
2021/12/30 02:58:07;;;;;;;101.15;23.25;;;;;;;2.16;100.00;97900.69;5112540;27;20023;-73
2021/12/30 03:00:33;;;;;;;103.03;23.40;;;;;;;2.26;100.00;97919.72;5112248;28;20494;-73
2021/12/30 03:02:58;;;;;;;102.68;23.88;;;;;;;2.29;100.00;97918.44;5112585;28;20126;-74
2021/12/30 03:05:24;;;;;;;100.60;22.85;;;;;;;2.29;100.00;97908.44;5111841;28;20110;-74
2021/12/30 03:07:50;;;;;;;123.63;23.63;;;;;;;2.26;100.00;97902.72;5111040;28;20113;-73
2021/12/30 03:10:22;;;;;;;113.38;22.73;;;;;;;2.24;100.00;97904.84;5112440;28;20027;-74
2021/12/30 03:12:53;;;;;;;152.63;24.60;;;;;;;2.18;100.00;97898.53;5112457;28;20122;-75
2021/12/30 03:15:19;;;;;;;251.10;27.17;;;;;;;2.17;100.00;97905.00;5110567;28;20028;-74
2021/12/30 03:17:45;;;;;;;85.82;21.23;;;;;;;2.15;100.00;97912.53;5112522;28;20055;-74
2021/12/30 03:20:11;;;;;;;98.07;22.55;;;;;;;2.21;100.00;97919.63;5112232;28;20070;-74
2021/12/30 03:22:41;;;;;;;65.30;19.73;;;;;;;2.23;100.00;97919.38;5112443;28;20031;-74
2021/12/30 03:25:08;;;;;;;81.68;18.92;;;;;;;2.17;100.00;97924.69;5112084;28;20027;-74
2021/12/30 03:27:35;;;;;;;125.40;22.15;;;;;;;2.30;100.00;97926.28;5111794;28;20063;-74
2021/12/30 03:30:01;;;;;;;53.13;19.42;;;;;;;2.27;100.00;97925.94;5111928;28;20070;-74
2021/12/30 03:32:27;;;;;;;121.32;21.33;;;;;;;2.29;100.00;97934.63;5104000;28;20123;-74
2021/12/30 03:34:52;;;;;;;57.88;19.42;;;;;;;2.36;100.00;97940.66;5111483;28;20020;-74
2021/12/30 03:37:18;;;;;;;58.33;20.85;;;;;;;2.35;100.00;97931.75;5111451;28;20536;-74
2021/12/30 03:39:46;;;;;;;59.78;18.33;;;;;;;2.26;100.00;97935.09;5111853;28;20019;-74
2021/12/30 03:42:12;;;;;;;56.92;19.65;;;;;;;2.36;100.00;97940.66;5111673;28;20035;-75
2021/12/30 03:44:37;;;;;;;46.95;18.33;;;;;;;2.44;100.00;97949.22;5111700;28;20144;-74
2021/12/30 03:47:03;;;;;;;48.80;18.55;;;;;;;2.54;100.00;97952.06;5111777;28;20118;-74
2021/12/30 03:49:28;;;;;;;49.78;18.23;;;;;;;2.54;100.00;97973.66;5111765;28;20033;-73
2021/12/30 03:51:54;;;;;;;45.20;16.75;;;;;;;2.49;100.00;97972.75;5111576;28;20529;-73
2021/12/30 03:54:20;;;;;;;48.60;17.05;;;;;;;2.57;100.00;97991.25;5110497;28;20724;-72
2021/12/30 03:56:45;;;;;;;45.35;17.42;;;;;;;2.57;100.00;97993.94;5111394;27;20026;-72
2021/12/30 03:59:11;;;;;;;47.38;16.13;;;;;;;2.58;100.00;98000.97;5112199;27;20039;-74
2021/12/30 04:01:36;;;;;;;37.92;15.15;;;;;;;2.68;100.00;98002.00;5113724;28;20431;-73
2021/12/30 04:04:02;;;;;;;46.10;18.88;;;;;;;2.70;100.00;98007.13;5111880;28;20023;-74
2021/12/30 04:06:28;;;;;;;44.65;16.80;;;;;;;2.79;100.00;98004.88;5116450;28;20028;-81
2021/12/30 04:08:55;;;;;;;42.88;16.40;;;;;;;2.73;100.00;98006.66;5114158;28;20031;-73
2021/12/30 04:11:26;;;;;;;42.03;16.92;;;;;;;2.68;100.00;97993.88;5111317;28;20031;-74
2021/12/30 04:13:51;;;;;;;45.80;16.98;;;;;;;2.70;100.00;97993.63;5110852;28;20101;-73
2021/12/30 04:16:19;;;;;;;38.33;16.45;;;;;;;2.68;100.00;97995.78;5110070;28;20464;-73
2021/12/30 04:18:48;;;;;;;45.30;17.75;;;;;;;2.56;100.00;98000.41;5109335;28;20026;-73
2021/12/30 04:21:15;;;;;;;44.25;16.92;;;;;;;2.66;100.00;98004.09;5110240;28;20020;-73
2021/12/30 04:23:41;;;;;;;37.13;14.90;;;;;;;2.67;100.00;98008.44;5111075;28;20036;-73
2021/12/30 04:26:07;;;;;;;37.47;15.50;;;;;;;2.67;100.00;98004.91;5110681;28;20480;-73
2021/12/30 04:28:35;;;;;;;40.25;16.17;;;;;;;2.76;100.00;98010.75;5111263;28;20396;-73
2021/12/30 04:31:01;;;;;;;42.65;16.73;;;;;;;2.69;100.00;97997.41;5111301;28;20020;-73
2021/12/30 04:33:26;;;;;;;63.10;26.98;;;;;;;2.75;100.00;98014.50;5111091;28;20043;-73
2021/12/30 04:35:56;;;;;;;48.05;17.55;;;;;;;2.63;100.00;98014.59;5110655;28;20080;-73
2021/12/30 04:38:27;;;;;;;43.97;16.92;;;;;;;2.62;100.00;98005.66;5110781;28;20472;-74
2021/12/30 04:40:55;;;;;;;42.47;16.80;;;;;;;2.60;100.00;98001.56;5110913;28;20039;-75
2021/12/30 04:43:22;;;;;;;48.17;18.33;;;;;;;2.51;100.00;98008.41;5110498;28;20039;-73
2021/12/30 04:45:48;;;;;;;37.58;16.98;;;;;;;2.52;100.00;98013.56;5110549;28;20024;-74
2021/12/30 04:48:17;;;;;;;31.08;15.00;;;;;;;2.46;100.00;98017.25;5110303;28;20047;-73
2021/12/30 04:50:45;;;;;;;31.73;17.25;;;;;;;2.40;100.00;98020.09;5110771;28;20161;-74
2021/12/30 04:53:11;;;;;;;33.13;17.15;;;;;;;2.46;100.00;98021.81;5110706;28;20045;-73
2021/12/30 04:55:36;;;;;;;31.50;16.13;;;;;;;2.45;100.00;98033.66;5110267;28;20442;-73
2021/12/30 04:58:02;;;;;;;31.10;15.70;;;;;;;2.39;100.00;98027.38;5110462;28;20023;-72
2021/12/30 05:00:28;;;;;;;33.90;17.40;;;;;;;2.53;100.00;98039.53;5110555;28;20464;-72
2021/12/30 05:03:10;;;;;;;35.63;17.40;;;;;;;2.48;100.00;98031.31;5110979;28;20032;-72
2021/12/30 05:05:44;;;;;;;31.02;15.23;;;;;;;2.51;100.00;98036.22;5110640;28;20226;-73
2021/12/30 05:08:10;;;;;;;31.65;17.38;;;;;;;2.43;100.00;98038.50;5110634;28;20019;-73
2021/12/30 05:10:37;;;;;;;33.47;17.15;;;;;;;2.40;100.00;98038.97;5110602;28;20028;-73
2021/12/30 05:13:03;;;;;;;32.92;17.27;;;;;;;2.28;100.00;98040.91;5109446;28;20026;-74
2021/12/30 05:15:29;;;;;;;35.05;17.58;;;;;;;2.22;100.00;98037.31;5110806;28;20031;-73
2021/12/30 05:17:54;;;;;;;35.60;17.08;;;;;;;2.27;100.00;98031.16;5110846;28;20073;-74
2021/12/30 05:20:20;;;;;;;36.10;18.98;;;;;;;2.21;100.00;98040.22;5108991;28;20119;-73
2021/12/30 05:22:46;;;;;;;39.53;20.23;;;;;;;2.14;100.00;98041.19;5110585;28;20023;-73
2021/12/30 05:25:12;;;;;;;34.60;17.48;;;;;;;2.24;100.00;98062.16;5112191;28;20080;-74
2021/12/30 05:27:38;;;;;;;33.97;16.83;;;;;;;2.14;100.00;98073.56;5110506;28;20066;-73
2021/12/30 05:30:06;;;;;;;37.40;18.35;;;;;;;2.29;100.00;98085.72;5110240;28;20547;-72
2021/12/30 05:32:32;;;;;;;36.20;17.58;;;;;;;2.22;100.00;98077.78;5110440;28;20475;-74
2021/12/30 05:34:58;;;;;;;33.25;17.23;;;;;;;2.26;100.00;98075.38;5110271;28;20032;-73
2021/12/30 05:37:23;;;;;;;39.45;18.88;;;;;;;2.23;100.00;98063.19;5110238;28;20024;-73
2021/12/30 05:39:48;;;;;;;34.92;16.73;;;;;;;2.31;100.00;98075.50;5110518;28;20035;-73
2021/12/30 05:42:14;;;;;;;37.15;16.88;;;;;;;2.29;100.00;98086.53;5110300;28;20035;-73
2021/12/30 05:44:40;;;;;;;38.72;20.05;;;;;;;2.27;100.00;98080.56;5108786;28;20548;-73
2021/12/30 05:47:06;;;;;;;37.60;19.50;;;;;;;2.27;100.00;98085.97;5110368;28;20040;-73
2021/12/30 05:49:31;;;;;;;38.20;18.60;;;;;;;2.12;100.00;98097.25;5108383;28;20032;-74
2021/12/30 05:51:57;;;;;;;33.85;17.65;;;;;;;2.13;100.00;98095.38;5113096;28;20023;-75
2021/12/30 05:54:22;;;;;;;34.17;18.95;;;;;;;2.10;100.00;98099.34;5111553;28;20045;-74
2021/12/30 05:56:48;;;;;;;34.83;17.27;;;;;;;2.16;100.00;98114.59;5110356;28;20030;-74
2021/12/30 05:59:13;;;;;;;34.75;17.73;;;;;;;2.10;100.00;98115.53;5111393;28;20101;-74
2021/12/30 06:01:38;;;;;;;33.90;17.95;;;;;;;2.09;100.00;98118.50;5114246;28;20020;-74
2021/12/30 06:04:04;;;;;;;35.83;16.33;;;;;;;2.12;100.00;98121.53;5113640;28;20035;-73
2021/12/30 06:06:29;;;;;;;34.65;18.42;;;;;;;2.15;100.00;98121.06;5113718;28;20464;-73
2021/12/30 06:08:55;;;;;;;34.00;17.25;;;;;;;2.34;100.00;98131.69;5113912;28;20433;-73
2021/12/30 06:11:21;;;;;;;34.72;18.42;;;;;;;2.46;100.00;98146.81;5114099;27;20089;-73
2021/12/30 06:13:46;;;;;;;30.77;16.88;;;;;;;2.40;100.00;98138.84;5113231;28;20028;-73
2021/12/30 06:16:11;;;;;;;30.33;15.93;;;;;;;2.34;100.00;98135.22;5114580;27;20041;-73
2021/12/30 06:18:37;;;;;;;34.88;16.27;;;;;;;2.32;100.00;98142.72;5115562;28;20026;-73
2021/12/30 06:21:02;;;;;;;32.10;16.65;;;;;;;2.39;100.00;98135.31;5115341;28;20788;-74
2021/12/30 06:23:28;;;;;;;30.08;16.33;;;;;;;2.35;100.00;98138.75;5114145;28;20027;-74
2021/12/30 06:25:53;;;;;;;31.20;15.80;;;;;;;2.27;100.00;98137.22;5113787;28;20063;-73
2021/12/30 06:28:18;;;;;;;28.20;15.63;;;;;;;2.30;100.00;98149.41;5113538;28;20028;-73
2021/12/30 06:30:44;;;;;;;26.35;15.65;;;;;;;2.28;100.00;98156.94;5113661;28;20036;-74
2021/12/30 06:33:09;;;;;;;29.63;15.30;;;;;;;2.32;100.00;98150.81;5113382;28;20361;-73
2021/12/30 06:35:35;;;;;;;32.88;16.13;;;;;;;2.25;100.00;98158.22;5113672;28;20039;-73
2021/12/30 06:38:02;;;;;;;31.30;15.52;;;;;;;2.28;100.00;98154.25;5112043;28;20475;-73
2021/12/30 06:40:28;;;;;;;31.42;16.15;;;;;;;2.25;100.00;98171.72;5113769;28;20019;-74
2021/12/30 06:42:54;;;;;;;35.88;17.58;;;;;;;2.29;100.00;98163.97;5113241;28;20056;-73
2021/12/30 06:45:19;;;;;;;31.52;15.82;;;;;;;2.33;100.00;98184.03;5112688;28;20032;-73
2021/12/30 06:47:45;;;;;;;38.83;16.42;;;;;;;2.28;100.00;98195.53;5112968;28;20059;-73
2021/12/30 06:50:13;;;;;;;36.47;17.40;;;;;;;2.29;100.00;98190.97;5112691;28;20076;-73
2021/12/30 06:52:41;;;;;;;36.97;17.23;;;;;;;2.22;100.00;98193.78;5102726;28;20026;-74
2021/12/30 06:55:08;;;;;;;42.17;19.10;;;;;;;1.97;100.00;98207.50;5112899;28;20525;-74
2021/12/30 06:57:34;;;;;;;37.03;17.90;;;;;;;2.00;100.00;98196.25;5112480;28;20020;-74
2021/12/30 07:00:00;;;;;;;49.72;19.80;;;;;;;1.92;100.00;98214.66;5112897;28;20023;-73
2021/12/30 07:02:26;;;;;;;49.03;19.17;;;;;;;1.88;100.00;98208.09;5112814;27;20072;-73
2021/12/30 07:04:51;;;;;;;43.35;17.75;;;;;;;1.99;100.00;98228.84;5112584;28;20143;-73
2021/12/30 07:07:17;;;;;;;37.63;18.17;;;;;;;2.11;100.00;98226.97;5112469;28;20112;-73
2021/12/30 07:09:42;;;;;;;32.08;15.88;;;;;;;2.13;100.00;98222.97;5104216;28;20071;-74
2021/12/30 07:12:08;;;;;;;47.38;18.20;;;;;;;2.00;100.00;98236.72;5110656;28;20111;-74
2021/12/30 07:14:33;;;;;;;55.22;17.70;;;;;;;1.92;100.00;98220.03;5113544;28;20030;-74
2021/12/30 07:16:59;;;;;;;49.38;18.45;;;;;;;1.84;100.00;98217.69;5112316;28;20106;-73
2021/12/30 07:19:24;;;;;;;36.95;17.88;;;;;;;1.85;100.00;98214.75;5112376;28;20399;-73
2021/12/30 07:21:50;;;;;;;45.17;17.98;;;;;;;1.76;100.00;98224.25;5112063;28;20383;-73
2021/12/30 07:24:17;;;;;;;48.50;19.92;;;;;;;1.80;100.00;98230.81;5112398;28;20031;-73
2021/12/30 07:26:43;;;;;;;46.28;21.17;;;;;;;2.03;100.00;98224.63;5111996;28;20468;-73
2021/12/30 07:29:08;;;;;;;45.95;18.73;;;;;;;1.98;100.00;98256.84;5112002;28;20084;-72
2021/12/30 07:31:34;;;;;;;40.00;18.35;;;;;;;1.98;100.00;98257.69;5112272;28;20023;-74
2021/12/30 07:33:59;;;;;;;37.92;19.13;;;;;;;1.97;100.00;98271.41;5102864;28;20110;-72
2021/12/30 07:36:25;;;;;;;35.60;16.90;;;;;;;1.95;100.00;98258.16;5111473;28;20034;-74
2021/12/30 07:38:50;;;;;;;60.78;16.00;;;;;;;1.88;100.00;98240.47;5110150;28;20484;-73
2021/12/30 07:41:17;;;;;;;63.17;16.10;;;;;;;1.96;100.00;98254.41;5110157;28;20015;-74
2021/12/30 07:43:43;;;;;;;34.55;16.15;;;;;;;1.99;100.00;98258.50;5112198;28;20027;-72
2021/12/30 07:46:09;;;;;;;82.28;16.33;;;;;;;2.06;100.00;98264.63;5111163;28;20019;-74
2021/12/30 07:48:36;;;;;;;42.95;17.92;;;;;;;1.94;100.00;98278.06;5110892;28;20023;-74
2021/12/30 07:51:01;;;;;;;85.47;19.27;;;;;;;1.94;100.00;98275.38;5110588;28;20023;-74
2021/12/30 07:53:27;;;;;;;49.83;18.63;;;;;;;1.88;100.00;98292.50;5110124;28;20024;-74
2021/12/30 07:55:52;;;;;;;51.60;19.20;;;;;;;1.98;100.00;98283.84;5107398;28;20056;-74
2021/12/30 07:58:17;;;;;;;55.05;20.38;;;;;;;2.03;100.00;98292.06;5108123;28;20032;-74
2021/12/30 08:00:43;;;;;;;65.45;20.95;;;;;;;1.95;100.00;98293.22;5108448;28;20062;-73
2021/12/30 08:03:08;;;;;;;63.42;20.00;;;;;;;2.11;100.00;98284.44;5108404;28;20012;-73
2021/12/30 08:05:34;;;;;;;52.33;18.60;;;;;;;2.08;100.00;98295.72;5107882;28;20023;-74
2021/12/30 08:08:00;;;;;;;82.68;21.02;;;;;;;2.01;100.00;98284.19;5107611;28;20020;-74
2021/12/30 08:10:26;;;;;;;52.53;18.33;;;;;;;2.18;100.00;98295.13;5107071;28;20072;-74
2021/12/30 08:12:54;;;;;;;42.63;17.23;;;;;;;2.19;100.00;98304.06;5107357;28;20058;-73
2021/12/30 08:15:20;;;;;;;56.17;17.75;;;;;;;2.68;100.00;98284.69;5106259;28;20038;-73
2021/12/30 08:17:47;;;;;;;122.60;17.10;;;;;;;2.38;100.00;98314.47;5107390;28;20036;-74
2021/12/30 08:20:14;;;;;;;112.72;18.38;;;;;;;2.32;100.00;98311.94;5109804;28;20043;-74
2021/12/30 08:22:39;;;;;;;150.00;18.75;;;;;;;2.36;100.00;98319.31;5106656;27;20031;-75
2021/12/30 08:25:07;;;;;;;103.93;18.52;;;;;;;2.39;100.00;98318.84;5108354;28;20034;-73
2021/12/30 08:27:33;;;;;;;192.05;22.73;;;;;;;2.43;100.00;98309.22;5106323;28;20077;-73
2021/12/30 08:29:58;;;;;;;74.15;16.92;;;;;;;2.44;100.00;98315.44;5110510;28;20395;-77
2021/12/30 08:32:24;;;;;;;41.67;16.00;;;;;;;2.57;100.00;98301.69;5111960;28;20031;-76
2021/12/30 08:34:49;;;;;;;155.25;19.65;;;;;;;2.54;100.00;98315.66;5109052;28;20825;-74
2021/12/30 08:37:16;;;;;;;121.97;18.30;;;;;;;2.65;100.00;98323.78;5109450;28;20031;-75
2021/12/30 08:39:42;;;;;;;46.92;16.50;;;;;;;2.75;100.00;98319.66;5102066;28;20068;-74
2021/12/30 08:42:27;;;;;;;91.97;17.30;;;;;;;2.63;100.00;98338.56;5101829;28;20472;-74
2021/12/30 08:44:57;;;;;;;60.55;17.38;;;;;;;2.58;100.00;98333.03;5103321;28;20039;-75
2021/12/30 08:47:23;;;;;;;89.30;17.75;;;;;;;2.58;100.00;98323.06;5105782;28;20475;-72
2021/12/30 08:49:49;;;;;;;44.72;17.08;;;;;;;2.65;100.00;98312.97;5108008;28;20019;-75
2021/12/30 08:52:19;;;;;;;82.47;17.65;;;;;;;2.65;100.00;98331.88;5107191;28;20572;-75
2021/12/30 08:54:47;;;;;;;72.60;17.10;;;;;;;2.52;100.00;98336.69;5105843;28;20043;-73
2021/12/30 08:57:13;;;;;;;58.92;17.85;;;;;;;2.57;100.00;98331.38;5106612;28;20016;-73
2021/12/30 08:59:39;;;;;;;97.85;19.50;;;;;;;2.48;100.00;98343.59;5107890;28;20026;-73
2021/12/30 09:02:06;;;;;;;65.68;18.35;;;;;;;2.68;100.00;98344.09;5108004;28;20434;-73
2021/12/30 09:04:32;;;;;;;100.60;19.20;;;;;;;2.78;100.00;98348.91;5108289;28;20027;-74
2021/12/30 09:06:58;;;;;;;83.80;19.80;;;;;;;2.87;100.00;98342.91;5103669;28;20028;-74
2021/12/30 09:09:24;;;;;;;69.68;18.98;;;;;;;2.90;100.00;98347.81;5106823;28;20062;-73
2021/12/30 09:11:49;;;;;;;89.78;18.63;;;;;;;3.07;100.00;98356.03;5107978;28;20531;-72
2021/12/30 09:14:15;;;;;;;67.22;18.55;;;;;;;3.07;100.00;98353.34;5107709;28;20106;-74
2021/12/30 09:16:41;;;;;;;54.72;17.13;;;;;;;3.13;100.00;98358.59;5107734;28;20495;-74
2021/12/30 09:19:07;;;;;;;72.03;18.88;;;;;;;3.19;100.00;98362.25;5105617;28;20032;-74
2021/12/30 09:21:36;;;;;;;45.25;18.13;;;;;;;3.32;100.00;98358.47;5098884;28;20021;-73
2021/12/30 09:24:01;;;;;;;79.40;18.73;;;;;;;3.33;100.00;98350.09;5098204;28;20464;-75
2021/12/30 09:26:26;;;;;;;53.10;19.33;;;;;;;3.45;100.00;98366.28;5100480;28;20031;-73
2021/12/30 09:28:52;;;;;;;65.57;18.83;;;;;;;3.46;100.00;98368.75;5098590;28;20036;-74
2021/12/30 09:31:20;;;;;;;60.35;19.65;;;;;;;3.49;100.00;98370.97;5103272;28;20804;-74
2021/12/30 09:33:48;;;;;;;61.42;19.50;;;;;;;3.41;100.00;98371.38;5106769;28;20384;-76
2021/12/30 09:36:13;;;;;;;79.90;21.60;;;;;;;3.34;100.00;98373.38;5111828;28;20020;-73
2021/12/30 09:38:38;;;;;;;53.88;21.40;;;;;;;3.42;100.00;98374.88;5106199;28;20015;-74
2021/12/30 09:41:04;;;;;;;49.90;20.60;;;;;;;3.24;100.00;98365.88;5096802;28;20388;-74
2021/12/30 09:43:30;;;;;;;55.10;20.70;;;;;;;3.39;100.00;98373.47;5105210;28;20039;-73
2021/12/30 09:45:56;;;;;;;62.33;17.80;;;;;;;3.37;100.00;98374.78;5106190;28;20494;-74
2021/12/30 09:48:21;;;;;;;40.42;19.23;;;;;;;3.59;100.00;98381.19;5108759;28;20029;-74
2021/12/30 09:50:52;;;;;;;42.90;19.45;;;;;;;3.70;100.00;98362.19;5108026;28;20114;-73
2021/12/30 09:53:21;;;;;;;38.17;18.48;;;;;;;3.89;100.00;98368.22;5103505;28;20027;-73
2021/12/30 09:55:46;;;;;;;35.03;17.30;;;;;;;3.94;100.00;98367.50;5103083;28;20035;-74
2021/12/30 09:58:11;;;;;;;36.00;16.80;;;;;;;3.96;100.00;98365.38;5102317;28;20461;-74
2021/12/30 10:00:38;;;;;;;32.55;18.08;;;;;;;3.98;100.00;98366.78;5103276;28;20396;-72
2021/12/30 10:03:04;;;;;;;33.10;18.35;;;;;;;3.97;100.00;98364.31;5100940;28;20067;-72
2021/12/30 10:05:36;;;;;;;36.13;19.42;;;;;;;3.94;100.00;98354.81;5104032;28;20736;-74
2021/12/30 10:08:24;;;;;;;38.28;20.38;;;;;;;4.36;100.00;98378.81;5106295;28;20035;-72
2021/12/30 10:10:55;;;;;;;33.15;17.63;;;;;;;3.96;100.00;98363.50;5104014;28;20034;-73
2021/12/30 10:13:29;;;;;;;35.92;18.15;;;;;;;3.97;100.00;98348.91;5106251;28;20031;-73
2021/12/30 10:16:03;;;;;;;39.05;20.40;;;;;;;4.34;100.00;98368.22;5106073;28;20479;-74
2021/12/30 10:18:51;;;;;;;33.42;18.38;;;;;;;4.18;100.00;98364.44;5100583;28;20042;-73
2021/12/30 10:21:23;;;;;;;38.47;19.30;;;;;;;4.35;100.00;98366.34;5110086;28;20031;-76
2021/12/30 10:23:52;;;;;;;30.42;17.25;;;;;;;4.23;100.00;98361.81;5106306;28;20028;-74
2021/12/30 10:26:17;;;;;;;35.17;17.20;;;;;;;4.15;100.00;98356.81;5108637;28;20018;-74
2021/12/30 10:28:44;;;;;;;32.72;18.13;;;;;;;4.32;100.00;98359.53;5105373;28;20035;-74
2021/12/30 10:31:12;;;;;;;31.75;17.25;;;;;;;4.35;100.00;98356.34;5107118;28;20020;-78
2021/12/30 10:34:09;;;;;;;33.65;18.65;;;;;;;4.04;100.00;98351.47;5105945;28;20167;-74
2021/12/30 10:36:40;;;;;;;30.42;17.40;;;;;;;4.36;100.00;98346.31;5090001;28;20105;-74
2021/12/30 10:39:27;;;;;;;30.95;17.33;;;;;;;4.64;100.00;98363.31;5107870;28;20023;-74
2021/12/30 10:42:19;;;;;;;26.70;15.15;;;;;;;4.90;100.00;98367.22;5105510;28;20020;-74
2021/12/30 10:44:58;;;;;;;28.48;14.90;;;;;;;4.78;100.00;98363.78;5108359;28;20046;-75
2021/12/30 10:47:29;;;;;;;34.65;14.98;;;;;;;4.35;100.00;98352.81;5106879;28;20027;-74
2021/12/30 10:50:04;;;;;;;26.45;14.68;;;;;;;4.45;100.00;98358.41;5101813;28;20468;-76
2021/12/30 10:52:30;;;;;;;26.20;13.75;;;;;;;4.57;100.00;98353.72;5101226;28;20031;-74
2021/12/30 10:54:57;;;;;;;24.73;14.52;;;;;;;4.60;100.00;98362.19;5104885;28;20051;-74
2021/12/30 10:57:28;;;;;;;25.67;15.50;;;;;;;4.83;100.00;98367.38;5107621;28;20027;-73
2021/12/30 10:59:54;;;;;;;27.80;17.33;;;;;;;4.95;100.00;98372.69;5102732;28;20039;-74
2021/12/30 11:02:22;;;;;;;29.83;16.10;;;;;;;4.72;100.00;98362.06;5108207;28;20415;-73
2021/12/30 11:04:49;;;;;;;31.27;17.05;;;;;;;4.79;100.00;98360.03;5108432;27;20115;-74
2021/12/30 11:07:21;;;;;;;34.55;17.42;;;;;;;4.46;100.00;98357.31;5108909;28;20072;-74
2021/12/30 11:09:52;;;;;;;35.90;18.65;;;;;;;4.71;100.00;98363.13;5107768;28;20028;-73
2021/12/30 11:12:29;;;;;;;33.10;18.80;;;;;;;5.01;100.00;98360.06;5108442;28;20076;-73
2021/12/30 11:14:56;;;;;;;30.30;17.70;;;;;;;4.70;100.00;98361.47;5108905;28;20027;-73
2021/12/30 11:17:33;;;;;;;32.83;18.50;;;;;;;4.84;100.00;98360.91;5109525;28;20080;-74